Time;durP1;ratioP1;P1;durP2;ratioP2;P2;SDS_P1;SDS_P2;PMS_P1;PMS_P2;Temp;Humidity;BMP_temperature;BMP_pressure;BME280_temperature;BME280_humidity;BME280_pressure;Samples;Min_cycle;Max_cycle;Signal;HPM_P1;HPM_P2
2022/08/26 00:01:11;;;;;;;2.95;2.20;;;16.30;60.50;;;;;;5028671;28;20216;-34
2022/08/26 00:03:42;;;;;;;4.40;2.17;;;16.30;60.60;;;;;;5031019;28;20203;-35
2022/08/26 00:06:13;;;;;;;4.45;2.85;;;16.30;60.80;;;;;;5031416;28;20196;-35
2022/08/26 00:08:45;;;;;;;5.32;3.05;;;16.30;61.70;;;;;;5030037;28;20188;-36
2022/08/26 00:11:16;;;;;;;4.72;2.63;;;16.40;62.70;;;;;;5046362;28;20289;-37
2022/08/26 00:13:46;;;;;;;4.50;2.47;;;16.40;62.60;;;;;;5048987;28;20284;-35
2022/08/26 00:16:19;;;;;;;3.45;2.33;;;16.50;62.40;;;;;;5029272;28;20195;-35
2022/08/26 00:18:50;;;;;;;3.03;2.20;;;16.50;62.20;;;;;;5030809;28;20203;-35
2022/08/26 00:21:20;;;;;;;3.03;2.15;;;16.50;62.00;;;;;;5029902;28;20213;-35
2022/08/26 00:23:51;;;;;;;3.38;2.40;;;16.50;61.90;;;;;;5030596;28;20674;-35
2022/08/26 00:26:22;;;;;;;4.05;2.50;;;16.50;61.80;;;;;;5045755;28;20196;-36
2022/08/26 00:28:53;;;;;;;3.50;2.25;;;16.60;61.80;;;;;;5051050;28;20200;-35
2022/08/26 00:31:25;;;;;;;3.40;2.30;;;16.60;61.80;;;;;;5050550;28;20227;-40
2022/08/26 00:33:56;;;;;;;3.90;2.33;;;16.50;61.70;;;;;;5051086;28;20202;-37
2022/08/26 00:36:27;;;;;;;3.45;2.28;;;16.60;61.70;;;;;;5049703;28;20198;-35
2022/08/26 00:38:57;;;;;;;4.13;2.58;;;16.60;61.60;;;;;;5031881;28;20254;-38
2022/08/26 00:41:28;;;;;;;3.95;2.40;;;16.60;61.50;;;;;;5028206;28;20676;-35
2022/08/26 00:43:59;;;;;;;4.47;2.63;;;16.60;61.60;;;;;;5029735;28;20207;-37
2022/08/26 00:46:34;;;;;;;3.17;2.28;;;16.60;61.90;;;;;;5030112;28;20661;-35
2022/08/26 00:49:09;;;;;;;2.53;2.28;;;16.70;61.90;;;;;;5030293;28;20675;-39
2022/08/26 00:51:46;;;;;;;3.22;1.92;;;16.70;61.80;;;;;;5030380;28;20216;-35
2022/08/26 00:54:18;;;;;;;3.78;2.28;;;16.70;61.70;;;;;;5030589;28;20203;-36
2022/08/26 00:56:53;;;;;;;2.72;2.13;;;16.70;61.70;;;;;;5031052;28;20222;-35
2022/08/26 00:59:25;;;;;;;4.50;2.58;;;16.70;61.70;;;;;;5030175;28;20199;-35
2022/08/26 01:01:59;;;;;;;4.38;2.08;;;16.70;61.70;;;;;;5031133;28;20192;-36
2022/08/26 01:04:31;;;;;;;3.60;2.20;;;16.70;61.70;;;;;;5029646;28;20774;-36
2022/08/26 01:07:03;;;;;;;3.28;2.10;;;16.70;61.70;;;;;;5030401;28;20203;-37
2022/08/26 01:09:34;;;;;;;3.30;2.13;;;16.70;61.60;;;;;;5029803;28;20580;-37
2022/08/26 01:12:06;;;;;;;3.45;2.10;;;16.80;61.60;;;;;;5030405;28;20200;-35
2022/08/26 01:14:39;;;;;;;3.97;2.60;;;16.80;61.40;;;;;;5030585;28;20207;-35
2022/08/26 01:17:11;;;;;;;2.90;2.10;;;16.80;61.30;;;;;;5030439;28;20674;-35
2022/08/26 01:19:47;;;;;;;3.38;2.20;;;16.80;61.30;;;;;;5029903;28;20211;-35
2022/08/26 01:22:22;;;;;;;4.60;2.33;;;16.90;61.40;;;;;;5030641;28;20199;-35
2022/08/26 01:24:55;;;;;;;4.55;2.30;;;16.90;61.40;;;;;;5030366;28;20656;-35
2022/08/26 01:27:26;;;;;;;4.70;2.28;;;16.90;61.40;;;;;;5010447;28;20204;-37
2022/08/26 01:29:56;;;;;;;3.80;2.10;;;16.90;61.40;;;;;;5011361;28;20308;-37
2022/08/26 01:32:28;;;;;;;3.40;1.95;;;16.90;61.50;;;;;;5030165;28;20649;-37
2022/08/26 01:34:59;;;;;;;2.47;1.95;;;16.90;61.50;;;;;;5030374;28;20192;-40
2022/08/26 01:37:35;;;;;;;3.45;2.15;;;16.90;61.40;;;;;;5029714;28;20697;-35
2022/08/26 01:40:11;;;;;;;3.15;1.92;;;16.90;61.40;;;;;;5031049;28;20584;-35
2022/08/26 01:42:44;;;;;;;3.45;2.45;;;16.90;61.30;;;;;;5030645;28;20195;-35
2022/08/26 01:45:18;;;;;;;4.05;1.70;;;17.00;61.30;;;;;;5029833;28;20208;-38
2022/08/26 01:47:50;;;;;;;3.22;1.90;;;17.00;61.30;;;;;;5029609;28;20200;-35
2022/08/26 01:50:24;;;;;;;4.75;2.40;;;17.00;61.20;;;;;;5030117;28;20676;-38
2022/08/26 01:52:57;;;;;;;3.05;1.73;;;17.00;61.30;;;;;;5029336;28;20208;-35
2022/08/26 01:55:31;;;;;;;4.97;2.10;;;17.00;61.40;;;;;;5032987;28;20192;-35
2022/08/26 01:58:05;;;;;;;3.03;2.03;;;17.00;61.50;;;;;;5034169;28;20196;-37
2022/08/26 02:00:37;;;;;;;3.25;2.10;;;17.10;61.50;;;;;;5033242;28;20243;-36
2022/08/26 02:03:20;;;;;;;3.50;2.20;;;17.10;61.40;;;;;;5034174;28;20204;-36
2022/08/26 02:05:54;;;;;;;2.33;2.05;;;17.10;61.30;;;;;;5032903;28;20188;-37
2022/08/26 02:08:29;;;;;;;2.08;1.77;;;17.10;61.30;;;;;;5033274;28;20200;-35
2022/08/26 02:11:02;;;;;;;3.25;2.03;;;17.20;61.30;;;;;;5032752;28;20231;-35
2022/08/26 02:13:35;;;;;;;3.08;1.65;;;17.20;61.20;;;;;;5033184;28;20232;-38
2022/08/26 02:16:07;;;;;;;3.03;2.10;;;17.20;61.10;;;;;;5033486;28;20670;-35
2022/08/26 02:18:41;;;;;;;3.65;2.10;;;17.30;61.10;;;;;;5032668;28;20192;-35
2022/08/26 02:21:13;;;;;;;3.20;2.22;;;17.30;61.10;;;;;;5040163;28;20777;-35
2022/08/26 02:23:43;;;;;;;3.03;1.90;;;17.30;61.10;;;;;;5053377;28;20644;-36
2022/08/26 02:26:18;;;;;;;2.63;1.95;;;17.30;61.00;;;;;;5053015;28;20195;-36
2022/08/26 02:28:53;;;;;;;3.50;2.10;;;17.30;61.00;;;;;;5047298;28;20203;-36
2022/08/26 02:31:25;;;;;;;4.35;2.20;;;17.40;61.10;;;;;;5042067;28;20222;-35
2022/08/26 02:33:55;;;;;;;3.00;2.03;;;17.40;61.00;;;;;;5052644;28;20211;-36
2022/08/26 02:36:27;;;;;;;3.05;1.80;;;17.40;60.90;;;;;;5053146;28;20188;-40
2022/08/26 02:38:58;;;;;;;2.47;1.92;;;17.40;60.90;;;;;;5052949;28;20206;-39
2022/08/26 02:41:31;;;;;;;2.22;2.00;;;17.50;61.70;;;;;;5051902;28;20214;-35
2022/08/26 02:44:02;;;;;;;3.15;2.00;;;17.50;60.90;;;;;;5052573;28;20196;-36
2022/08/26 02:46:32;;;;;;;4.15;2.15;;;17.50;60.80;;;;;;5048243;28;20204;-35
2022/08/26 02:49:03;;;;;;;2.95;2.00;;;17.50;60.80;;;;;;5032392;28;20196;-35
2022/08/26 02:51:34;;;;;;;2.95;2.03;;;17.50;60.70;;;;;;5032152;28;20256;-35
2022/08/26 02:54:05;;;;;;;4.07;2.10;;;17.60;60.70;;;;;;5033059;28;20188;-36
2022/08/26 02:56:38;;;;;;;3.42;2.10;;;17.60;60.70;;;;;;5032802;28;20188;-41
2022/08/26 02:59:11;;;;;;;3.53;2.30;;;17.60;60.60;;;;;;5033799;28;20644;-39
2022/08/26 03:01:43;;;;;;;3.30;1.98;;;17.60;60.70;;;;;;5031862;28;20273;-39
2022/08/26 03:04:14;;;;;;;2.80;2.00;;;17.60;60.60;;;;;;5032089;28;20640;-41
2022/08/26 03:06:45;;;;;;;2.83;2.08;;;17.60;60.70;;;;;;5032442;28;20197;-36
2022/08/26 03:09:17;;;;;;;2.28;1.60;;;17.70;60.80;;;;;;5032415;28;20196;-36
2022/08/26 03:11:49;;;;;;;3.35;2.25;;;17.70;60.70;;;;;;5032125;28;20707;-35
2022/08/26 03:14:20;;;;;;;2.45;1.73;;;17.70;60.70;;;;;;5032684;28;20200;-35
2022/08/26 03:16:53;;;;;;;2.22;1.88;;;17.70;60.60;;;;;;5032387;28;20200;-35
2022/08/26 03:19:25;;;;;;;3.67;1.70;;;17.70;60.60;;;;;;5031658;28;20282;-38
2022/08/26 03:21:56;;;;;;;3.05;1.75;;;17.70;60.50;;;;;;5042847;28;20274;-35
2022/08/26 03:24:27;;;;;;;2.22;1.70;;;17.70;60.50;;;;;;5051576;28;20200;-35
2022/08/26 03:27:00;;;;;;;2.80;1.88;;;17.80;60.50;;;;;;5051852;28;20196;-34
2022/08/26 03:32:18;;;;;;;2.55;1.70;;;17.80;60.50;;;;;;5031085;28;20239;-35
2022/08/26 03:34:48;;;;;;;3.08;1.88;;;17.80;60.40;;;;;;5031899;28;20196;-35
2022/08/26 03:37:20;;;;;;;2.63;1.60;;;17.80;60.40;;;;;;5031629;28;20196;-35
2022/08/26 03:39:51;;;;;;;3.25;1.98;;;17.80;60.50;;;;;;5031517;28;20293;-35
2022/08/26 03:42:23;;;;;;;2.65;1.70;;;17.90;60.60;;;;;;5031337;28;20565;-39
2022/08/26 03:44:54;;;;;;;3.33;1.55;;;17.90;60.80;;;;;;5030595;28;20200;-33
2022/08/26 03:47:25;;;;;;;2.35;1.80;;;17.90;60.80;;;;;;5031904;28;20594;-36
2022/08/26 03:49:55;;;;;;;3.92;1.92;;;17.90;60.70;;;;;;5032436;28;20220;-36
2022/08/26 03:52:26;;;;;;;3.60;1.77;;;17.90;60.60;;;;;;5031897;28;20219;-35
2022/08/26 03:54:57;;;;;;;3.58;1.98;;;18.00;60.60;;;;;;5031653;28;20947;-36
2022/08/26 03:57:30;;;;;;;2.47;1.80;;;18.00;60.60;;;;;;5031922;28;20196;-35
2022/08/26 04:00:00;;;;;;;3.00;1.92;;;18.00;60.50;;;;;;5030962;28;20239;-34
2022/08/26 04:02:31;;;;;;;4.22;2.15;;;18.00;60.50;;;;;;5029547;28;20568;-35
2022/08/26 04:05:02;;;;;;;3.58;1.80;;;18.00;60.50;;;;;;5031061;28;20208;-36
2022/08/26 04:07:32;;;;;;;2.78;1.85;;;18.00;60.40;;;;;;5031935;28;20219;-35
2022/08/26 04:10:03;;;;;;;3.90;1.90;;;18.00;60.40;;;;;;5029841;28;20212;-35
2022/08/26 04:12:36;;;;;;;2.30;1.63;;;18.00;60.40;;;;;;5031753;28;20203;-38
2022/08/26 04:15:07;;;;;;;3.50;1.65;;;18.00;60.40;;;;;;5031647;28;20192;-35
2022/08/26 04:17:38;;;;;;;2.00;1.48;;;18.00;60.30;;;;;;5030589;28;20192;-36
2022/08/26 04:20:12;;;;;;;2.05;1.50;;;18.00;60.30;;;;;;5031073;28;20204;-36
2022/08/26 04:22:43;;;;;;;3.00;1.67;;;18.00;60.30;;;;;;5030622;28;20679;-47
2022/08/26 04:25:14;;;;;;;2.50;1.80;;;18.00;60.30;;;;;;5030944;28;20188;-35
2022/08/26 04:27:47;;;;;;;2.53;1.67;;;18.00;60.20;;;;;;5030921;28;20196;-36
2022/08/26 04:30:18;;;;;;;2.58;1.55;;;18.00;60.20;;;;;;5031448;28;20208;-35
2022/08/26 04:32:49;;;;;;;2.42;1.63;;;18.00;60.20;;;;;;5030629;28;20204;-36
2022/08/26 04:35:20;;;;;;;3.20;1.90;;;18.10;60.30;;;;;;5030816;28;20246;-37
2022/08/26 04:37:51;;;;;;;2.65;1.77;;;18.00;60.20;;;;;;5031297;28;20196;-41
2022/08/26 04:40:21;;;;;;;3.13;1.90;;;18.00;60.10;;;;;;5029855;28;20570;-43
2022/08/26 04:42:54;;;;;;;4.47;2.00;;;18.00;60.10;;;;;;5030454;28;20219;-35
2022/08/26 04:45:25;;;;;;;2.60;2.00;;;18.00;60.20;;;;;;5029654;28;20675;-36
2022/08/26 04:47:57;;;;;;;2.17;1.63;;;18.00;60.10;;;;;;5030598;28;20215;-35
2022/08/26 04:50:28;;;;;;;2.85;1.70;;;18.00;60.10;;;;;;5030142;28;20216;-34
2022/08/26 04:52:58;;;;;;;2.90;1.63;;;18.00;60.10;;;;;;5030293;28;20196;-37
2022/08/26 04:55:29;;;;;;;2.42;1.90;;;18.00;60.10;;;;;;5047383;28;20192;-35
2022/08/26 04:58:02;;;;;;;3.15;1.80;;;18.00;60.10;;;;;;5051488;28;20191;-38
2022/08/26 05:00:33;;;;;;;3.55;1.90;;;18.00;60.10;;;;;;5050690;28;20222;-33
2022/08/26 05:03:03;;;;;;;3.38;2.03;;;18.00;60.10;;;;;;5050888;28;20206;-36
2022/08/26 05:05:34;;;;;;;3.20;1.90;;;18.00;60.10;;;;;;5041531;28;20208;-33
2022/08/26 05:08:05;;;;;;;2.72;1.70;;;18.00;60.00;;;;;;5028613;28;20691;-36
2022/08/26 05:10:36;;;;;;;2.80;1.80;;;18.00;60.00;;;;;;5030477;28;20220;-33
2022/08/26 05:13:08;;;;;;;3.70;1.83;;;18.00;60.80;;;;;;5029985;28;20199;-33
2022/08/26 05:15:39;;;;;;;3.55;1.90;;;18.00;60.10;;;;;;5030783;28;20192;-36
2022/08/26 05:18:12;;;;;;;3.67;1.80;;;18.00;60.00;;;;;;5029677;28;20204;-35
2022/08/26 05:20:44;;;;;;;3.95;1.85;;;17.90;60.00;;;;;;5028593;28;20577;-33
2022/08/26 05:23:15;;;;;;;2.60;2.00;;;17.90;60.00;;;;;;5029596;28;20279;-34
2022/08/26 05:25:49;;;;;;;2.10;1.60;;;18.00;60.00;;;;;;5029829;28;20207;-33
2022/08/26 05:28:22;;;;;;;3.55;1.90;;;17.90;59.90;;;;;;5030521;28;20195;-33
2022/08/26 05:30:54;;;;;;;2.50;1.90;;;17.90;60.00;;;;;;5034574;28;20262;-36
2022/08/26 05:33:25;;;;;;;3.63;1.65;;;17.90;59.90;;;;;;5034750;28;20299;-36
2022/08/26 05:35:56;;;;;;;2.25;1.60;;;17.90;60.00;;;;;;5034221;28;20292;-38
2022/08/26 05:38:27;;;;;;;2.97;1.77;;;17.90;60.00;;;;;;5033663;28;20759;-33
2022/08/26 05:40:57;;;;;;;3.80;2.00;;;17.90;60.00;;;;;;5033647;28;20231;-36
2022/08/26 05:43:30;;;;;;;2.55;1.88;;;17.90;60.00;;;;;;5033819;28;20292;-38
2022/08/26 05:46:08;;;;;;;4.60;1.90;;;17.90;60.00;;;;;;5030369;28;20208;-37
2022/08/26 05:48:39;;;;;;;2.58;1.83;;;17.90;60.00;;;;;;5028421;28;20211;-37
2022/08/26 05:51:14;;;;;;;2.95;2.08;;;17.80;60.00;;;;;;5051552;28;20222;-39
2022/08/26 05:53:45;;;;;;;2.33;1.73;;;17.80;60.00;;;;;;5034124;28;20283;-37
2022/08/26 05:56:18;;;;;;;3.17;2.00;;;17.90;60.00;;;;;;5014319;28;20243;-37
2022/08/26 05:58:51;;;;;;;3.10;1.88;;;17.80;59.90;;;;;;5021809;28;20271;-35
2022/08/26 06:01:24;;;;;;;3.45;2.10;;;17.90;59.90;;;;;;5014351;28;20227;-35
2022/08/26 06:03:56;;;;;;;3.42;2.05;;;17.80;60.00;;;;;;5025218;28;20279;-39
2022/08/26 06:06:28;;;;;;;2.85;1.67;;;17.80;60.10;;;;;;5033859;28;20192;-43
2022/08/26 06:09:00;;;;;;;1.88;1.63;;;17.80;60.10;;;;;;5032803;28;20200;-41
2022/08/26 06:11:31;;;;;;;2.97;1.75;;;17.80;60.10;;;;;;5033596;28;20294;-35
2022/08/26 06:14:06;;;;;;;2.17;1.70;;;17.80;60.10;;;;;;5033005;28;20200;-38
2022/08/26 06:16:39;;;;;;;2.72;1.67;;;17.80;60.10;;;;;;5033785;28;20709;-38
2022/08/26 06:19:11;;;;;;;2.65;2.13;;;17.70;60.00;;;;;;5034089;28;20644;-37
2022/08/26 06:21:43;;;;;;;2.80;1.83;;;17.80;60.10;;;;;;5033405;28;20239;-40
2022/08/26 06:27:04;;;;;;;2.45;1.92;;;17.80;60.00;;;;;;5033466;28;20204;-42
2022/08/26 06:29:38;;;;;;;3.28;2.08;;;17.70;60.00;;;;;;5032244;28;20803;-39
2022/08/26 06:32:08;;;;;;;3.08;1.95;;;17.70;60.00;;;;;;5033211;28;20267;-35
2022/08/26 06:34:39;;;;;;;2.35;2.15;;;17.70;60.00;;;;;;5034043;28;20675;-38
2022/08/26 06:37:13;;;;;;;4.18;3.40;;;17.70;60.00;;;;;;5032772;28;20188;-35
2022/08/26 06:39:43;;;;;;;5.95;3.95;;;17.70;60.10;;;;;;5032148;28;20200;-37
2022/08/26 06:42:14;;;;;;;6.05;4.63;;;17.70;60.10;;;;;;5031444;28;20220;-39
2022/08/26 06:44:47;;;;;;;18.85;12.73;;;17.70;60.10;;;;;;5032885;28;20202;-36
2022/08/26 06:47:17;;;;;;;16.63;10.55;;;17.70;60.20;;;;;;5032939;28;20214;-35
2022/08/26 06:49:48;;;;;;;21.05;12.63;;;17.60;60.00;;;;;;5032699;28;20216;-37
2022/08/26 06:52:19;;;;;;;21.73;14.18;;;17.60;60.10;;;;;;5033327;28;20235;-37
2022/08/26 06:54:49;;;;;;;22.15;14.70;;;17.60;60.00;;;;;;5032442;28;20204;-36
2022/08/26 06:57:20;;;;;;;21.33;13.23;;;17.60;60.00;;;;;;5033059;28;20196;-40
2022/08/26 06:59:53;;;;;;;21.38;13.63;;;17.60;60.00;;;;;;5033010;28;20582;-35
2022/08/26 07:02:23;;;;;;;17.88;13.20;;;17.60;60.00;;;;;;5032538;28;20207;-35
2022/08/26 07:04:54;;;;;;;21.02;13.02;;;17.60;59.90;;;;;;5032656;28;20203;-39
2022/08/26 07:07:25;;;;;;;20.83;13.10;;;17.60;59.90;;;;;;5032901;28;20206;-39
2022/08/26 07:09:56;;;;;;;16.48;11.73;;;17.60;59.90;;;;;;5032009;28;20204;-35
2022/08/26 07:12:27;;;;;;;17.92;12.43;;;17.50;59.90;;;;;;5033037;28;20235;-36
2022/08/26 07:14:59;;;;;;;17.30;11.75;;;17.50;59.90;;;;;;5032569;28;20200;-35
2022/08/26 07:17:30;;;;;;;16.23;11.60;;;17.50;59.90;;;;;;5032553;28;20690;-38
2022/08/26 07:20:02;;;;;;;16.48;11.40;;;17.50;59.90;;;;;;5032425;28;20219;-38
2022/08/26 07:22:32;;;;;;;15.15;10.23;;;17.50;59.90;;;;;;5032434;28;20200;-42
2022/08/26 07:25:06;;;;;;;13.75;10.38;;;17.40;59.90;;;;;;5032726;28;20654;-35
2022/08/26 07:27:37;;;;;;;14.68;10.90;;;17.40;59.90;;;;;;5032276;28;20242;-40
2022/08/26 07:30:11;;;;;;;12.90;10.43;;;17.50;59.90;;;;;;5031586;28;20219;-36
2022/08/26 07:32:42;;;;;;;12.43;9.93;;;17.40;59.80;;;;;;5031085;28;20246;-35
2022/08/26 07:35:13;;;;;;;15.85;10.30;;;17.40;59.80;;;;;;5029905;28;20195;-36
2022/08/26 07:37:43;;;;;;;14.35;9.95;;;17.40;59.80;;;;;;5031134;28;20742;-35
2022/08/26 07:40:14;;;;;;;14.75;10.00;;;17.40;59.80;;;;;;5030720;28;20212;-36
2022/08/26 07:42:45;;;;;;;16.83;10.23;;;17.40;59.90;;;;;;5030007;28;20202;-37
2022/08/26 07:45:20;;;;;;;14.05;10.27;;;17.30;59.80;;;;;;5030658;28;20557;-40
2022/08/26 07:47:51;;;;;;;14.05;9.85;;;17.30;59.90;;;;;;5030730;28;20205;-35
2022/08/26 07:50:23;;;;;;;15.10;9.88;;;17.30;59.90;;;;;;5030580;28;20216;-36
2022/08/26 07:52:53;;;;;;;14.07;9.82;;;17.30;59.90;;;;;;5029869;28;20306;-40
2022/08/26 07:55:24;;;;;;;13.27;10.02;;;17.30;60.00;;;;;;5030433;28;20211;-36
2022/08/26 07:57:55;;;;;;;14.52;9.38;;;17.30;59.90;;;;;;5030030;28;20203;-37
2022/08/26 08:00:31;;;;;;;11.75;8.65;;;17.30;59.90;;;;;;5030556;28;20231;-35
2022/08/26 08:03:02;;;;;;;13.35;9.18;;;17.30;59.90;;;;;;5031008;28;20273;-38
2022/08/26 08:05:33;;;;;;;15.38;9.35;;;17.30;59.90;;;;;;5030791;28;20238;-36
2022/08/26 08:08:06;;;;;;;14.13;9.23;;;17.30;59.80;;;;;;5031064;28;20358;-40
2022/08/26 08:10:38;;;;;;;12.48;8.57;;;17.30;59.90;;;;;;5029893;28;20212;-41
2022/08/26 08:13:09;;;;;;;12.88;9.25;;;17.30;59.90;;;;;;5030276;28;20735;-41
2022/08/26 08:15:42;;;;;;;11.43;8.55;;;17.20;59.80;;;;;;5030728;28;20656;-38
2022/08/26 08:18:13;;;;;;;12.00;8.65;;;17.20;59.90;;;;;;5030095;28;20200;-39
2022/08/26 08:20:43;;;;;;;12.48;8.85;;;17.20;59.90;;;;;;5030367;28;20227;-37
2022/08/26 08:23:14;;;;;;;12.18;9.00;;;17.10;59.80;;;;;;5030469;28;20200;-38
2022/08/26 08:25:45;;;;;;;13.43;9.15;;;17.20;59.90;;;;;;5030215;28;20188;-39
2022/08/26 08:28:15;;;;;;;14.18;8.90;;;17.20;59.90;;;;;;5029755;28;20200;-37
2022/08/26 08:30:48;;;;;;;10.20;7.65;;;17.10;59.80;;;;;;5030137;28;20718;-38
2022/08/26 08:33:19;;;;;;;12.85;8.70;;;17.10;59.80;;;;;;5030200;28;20614;-41
2022/08/26 08:35:49;;;;;;;14.77;8.75;;;17.10;59.80;;;;;;5030216;28;20192;-35
2022/08/26 08:38:20;;;;;;;11.40;8.27;;;17.20;59.80;;;;;;5029864;28;20192;-40
2022/08/26 08:40:51;;;;;;;13.88;8.27;;;17.10;59.80;;;;;;5029426;28;20215;-37
2022/08/26 08:43:32;;;;;;;9.85;8.13;;;17.10;59.80;;;;;;5029867;28;20580;-35
2022/08/26 08:46:10;;;;;;;12.02;8.95;;;17.10;59.80;;;;;;5030245;28;20624;-36
2022/08/26 08:48:43;;;;;;;12.07;8.88;;;17.10;59.80;;;;;;5030228;28;20593;-35
2022/08/26 08:51:22;;;;;;;12.43;8.32;;;17.10;59.80;;;;;;5030199;28;20979;-34
2022/08/26 08:53:55;;;;;;;13.75;9.13;;;17.00;59.80;;;;;;5029831;28;20605;-42
2022/08/26 08:56:30;;;;;;;12.30;7.93;;;17.00;59.80;;;;;;5029756;28;20598;-37
2022/08/26 08:59:10;;;;;;;9.43;7.70;;;17.00;59.80;;;;;;5010503;28;20640;-35
2022/08/26 09:02:02;;;;;;;10.98;7.85;;;17.00;59.80;;;;;;5010824;28;20224;-37
2022/08/26 09:04:56;;;;;;;12.10;8.18;;;17.00;59.80;;;;;;5013838;28;20196;-39
2022/08/26 09:07:33;;;;;;;9.82;7.78;;;17.00;59.70;;;;;;5014199;28;20205;-39
2022/08/26 09:10:07;;;;;;;12.45;9.80;;;17.00;59.70;;;;;;5014027;28;20620;-36
2022/08/26 09:12:38;;;;;;;12.25;9.00;;;17.00;59.90;;;;;;5021647;28;20227;-36
2022/08/26 09:15:17;;;;;;;11.32;7.65;;;16.90;59.90;;;;;;5033695;28;20192;-36
2022/08/26 09:17:58;;;;;;;11.82;8.02;;;16.90;59.90;;;;;;5033454;28;20204;-41
2022/08/26 09:20:46;;;;;;;9.25;7.55;;;16.90;59.90;;;;;;5033675;28;20226;-36
2022/08/26 09:23:16;;;;;;;12.25;8.18;;;16.90;59.90;;;;;;5033750;28;20200;-37
2022/08/26 09:25:52;;;;;;;10.57;7.68;;;16.90;59.90;;;;;;5033346;28;20197;-43
2022/08/26 09:28:25;;;;;;;10.52;8.20;;;16.90;59.90;;;;;;5033081;28;20695;-38
2022/08/26 09:31:11;;;;;;;9.68;8.00;;;16.80;59.80;;;;;;5033354;28;20216;-35
2022/08/26 09:33:44;;;;;;;10.65;7.13;;;16.80;59.80;;;;;;5033091;28;20224;-36
2022/08/26 09:36:23;;;;;;;12.20;8.35;;;16.80;59.80;;;;;;5033477;28;20211;-38
2022/08/26 09:38:55;;;;;;;13.43;10.40;;;16.80;59.80;;;;;;5033449;28;20376;-38
2022/08/26 09:41:30;;;;;;;24.30;16.42;;;16.80;60.00;;;;;;5033137;28;20577;-37
2022/08/26 09:44:16;;;;;;;33.33;22.75;;;16.80;60.80;;;;;;5032862;28;20242;-36
2022/08/26 09:46:59;;;;;;;35.75;24.98;;;16.90;62.70;;;;;;5033365;28;20216;-35
2022/08/26 09:49:34;;;;;;;32.03;23.70;;;16.90;65.00;;;;;;5033420;28;20567;-45
2022/08/26 09:52:25;;;;;;;35.30;22.38;;;17.00;64.60;;;;;;5032781;28;20199;-38
2022/08/26 09:55:08;;;;;;;25.92;18.08;;;17.00;64.70;;;;;;5032029;28;20311;-45
2022/08/26 09:57:47;;;;;;;23.23;19.08;;;17.10;64.40;;;;;;5033438;28;20204;-39
2022/08/26 10:00:33;;;;;;;30.40;18.67;;;17.10;64.20;;;;;;5033820;28;20208;-44
2022/08/26 10:03:05;;;;;;;23.13;17.60;;;17.10;64.20;;;;;;5014548;28;20203;-39
2022/08/26 10:05:43;;;;;;;29.20;18.58;;;17.10;64.10;;;;;;5028407;28;20207;-35
2022/08/26 10:08:31;;;;;;;24.40;18.17;;;17.10;64.00;;;;;;5034183;28;20648;-35
2022/08/26 10:11:05;;;;;;;26.52;18.17;;;17.00;63.80;;;;;;5033171;28;20216;-37
2022/08/26 10:13:38;;;;;;;25.88;18.77;;;17.00;63.80;;;;;;5033263;28;20728;-35
2022/08/26 10:16:18;;;;;;;27.50;17.95;;;17.00;63.60;;;;;;5032678;28;20200;-36
2022/08/26 10:18:56;;;;;;;22.17;17.65;;;17.00;63.50;;;;;;5033927;28;20196;-38
2022/08/26 10:21:34;;;;;;;21.20;16.67;;;17.00;63.30;;;;;;5033114;28;20596;-44
2022/08/26 10:24:05;;;;;;;23.98;17.40;;;16.90;63.20;;;;;;5032730;28;20208;-35
2022/08/26 10:26:45;;;;;;;24.52;17.30;;;16.90;63.10;;;;;;5034212;28;20246;-38
2022/08/26 10:29:20;;;;;;;21.55;16.73;;;16.90;63.00;;;;;;5033834;28;20192;-43
2022/08/26 10:31:56;;;;;;;25.08;17.73;;;16.90;63.00;;;;;;5032999;28;20211;-42
2022/08/26 10:34:27;;;;;;;21.13;15.82;;;16.90;63.00;;;;;;5032485;28;20211;-39
2022/08/26 10:37:02;;;;;;;20.98;16.05;;;16.80;62.70;;;;;;5033498;28;20542;-41
2022/08/26 10:39:38;;;;;;;20.13;15.77;;;16.80;62.70;;;;;;5032877;28;20207;-36
2022/08/26 10:42:15;;;;;;;21.30;16.33;;;16.80;62.80;;;;;;5012976;28;20657;-35
2022/08/26 10:44:48;;;;;;;21.65;15.65;;;16.80;63.00;;;;;;5019321;28;20196;-39
2022/08/26 10:47:22;;;;;;;22.90;16.38;;;16.80;62.90;;;;;;5033221;28;20575;-35
2022/08/26 10:49:56;;;;;;;20.02;15.73;;;16.80;62.80;;;;;;5032657;28;20219;-38
2022/08/26 10:52:36;;;;;;;20.23;15.40;;;16.70;62.70;;;;;;5032911;28;20204;-34
2022/08/26 10:55:13;;;;;;;17.77;14.93;;;16.70;62.60;;;;;;5032281;28;20192;-35
2022/08/26 10:57:51;;;;;;;23.10;16.35;;;16.70;62.60;;;;;;5032852;28;20196;-36
2022/08/26 11:03:25;;;;;;;20.50;15.75;;;16.60;62.50;;;;;;5033405;28;20199;-35
2022/08/26 11:06:33;;;;;;;18.27;14.35;;;16.60;62.40;;;;;;5032135;28;20196;-35
2022/08/26 11:09:07;;;;;;;17.85;14.07;;;16.60;62.30;;;;;;5018449;28;20192;-38
2022/08/26 11:11:51;;;;;;;17.90;13.93;;;16.60;62.20;;;;;;5032693;28;20212;-37
2022/08/26 11:14:38;;;;;;;21.05;15.18;;;16.60;62.90;;;;;;5032632;28;20231;-38
2022/08/26 11:17:12;;;;;;;18.20;14.15;;;16.60;62.10;;;;;;5033019;28;20674;-36
2022/08/26 11:20:04;;;;;;;18.58;13.95;;;16.50;62.10;;;;;;5032574;28;20587;-35
2022/08/26 11:22:37;;;;;;;19.40;13.40;;;16.50;62.30;;;;;;5032430;28;20206;-39
2022/08/26 11:25:12;;;;;;;19.60;13.73;;;16.50;62.20;;;;;;5032656;28;20196;-35
2022/08/26 11:28:06;;;;;;;18.90;13.80;;;16.50;62.20;;;;;;5030695;28;20644;-34
2022/08/26 11:30:49;;;;;;;18.98;13.75;;;16.50;62.20;;;;;;5031853;28;20212;-40
2022/08/26 11:33:59;;;;;;;17.70;12.77;;;16.50;62.10;;;;;;5031909;28;20212;-35
2022/08/26 11:36:57;;;;;;;20.90;13.70;;;16.40;62.10;;;;;;5031068;28;20192;-37
2022/08/26 11:39:35;;;;;;;18.25;12.95;;;16.50;62.00;;;;;;5031722;28;20200;-39
2022/08/26 11:42:20;;;;;;;17.42;13.35;;;16.40;61.90;;;;;;5030951;28;20196;-35
2022/08/26 11:44:51;;;;;;;16.48;12.38;;;16.40;61.80;;;;;;5030832;28;20211;-34
2022/08/26 11:47:30;;;;;;;16.55;11.82;;;16.40;61.80;;;;;;5031229;28;20214;-39
2022/08/26 11:50:15;;;;;;;16.92;13.52;;;16.40;61.80;;;;;;5029645;28;20706;-37
2022/08/26 11:52:55;;;;;;;18.13;12.98;;;16.40;61.90;;;;;;5031419;28;20207;-36
2022/08/26 11:55:25;;;;;;;16.58;12.43;;;16.40;61.90;;;;;;5030874;28;20188;-36
2022/08/26 11:58:00;;;;;;;16.27;12.55;;;16.30;61.80;;;;;;5031674;28;20203;-41
2022/08/26 12:00:33;;;;;;;16.42;11.95;;;16.30;61.80;;;;;;5031873;28;20257;-35
2022/08/26 12:03:07;;;;;;;15.50;12.25;;;16.30;61.90;;;;;;5031772;28;20207;-40
2022/08/26 12:05:44;;;;;;;13.85;11.63;;;16.30;61.80;;;;;;5031840;28;20670;-37
2022/08/26 12:08:19;;;;;;;16.73;12.13;;;16.30;61.80;;;;;;5031478;28;20219;-37
2022/08/26 12:10:50;;;;;;;14.63;11.75;;;16.30;61.60;;;;;;5031709;28;20697;-38
2022/08/26 12:13:27;;;;;;;13.85;11.45;;;16.30;61.60;;;;;;5030403;28;20216;-40
2022/08/26 12:16:01;;;;;;;15.23;11.32;;;16.30;61.60;;;;;;5031012;28;20192;-41
2022/08/26 12:18:34;;;;;;;14.07;11.88;;;16.30;61.60;;;;;;5012086;28;20197;-37
2022/08/26 12:21:15;;;;;;;14.98;11.70;;;16.20;61.40;;;;;;5038069;28;20215;-39
2022/08/26 12:23:48;;;;;;;11.73;10.18;;;16.20;61.50;;;;;;5050917;28;20202;-35
2022/08/26 12:26:28;;;;;;;14.35;11.00;;;16.20;61.50;;;;;;5050610;28;20219;-37
2022/08/26 12:29:03;;;;;;;16.05;11.88;;;16.20;61.50;;;;;;5051145;28;20282;-38
2022/08/26 12:31:36;;;;;;;16.17;10.98;;;16.20;61.50;;;;;;5051489;28;20218;-35
2022/08/26 12:34:08;;;;;;;16.05;10.82;;;16.20;61.50;;;;;;5050950;28;20231;-38
2022/08/26 12:36:41;;;;;;;13.10;10.20;;;16.20;61.50;;;;;;5050100;28;20226;-35
2022/08/26 12:39:14;;;;;;;15.30;11.20;;;16.20;61.40;;;;;;5049949;28;20214;-38
2022/08/26 12:41:48;;;;;;;12.90;10.32;;;16.20;61.40;;;;;;5035095;28;20216;-34
2022/08/26 12:44:45;;;;;;;15.50;10.70;;;16.10;61.30;;;;;;5029819;28;20188;-35
2022/08/26 12:47:26;;;;;;;11.80;10.30;;;16.10;61.30;;;;;;5030029;28;20211;-34
2022/08/26 12:50:06;;;;;;;13.35;10.30;;;16.10;61.20;;;;;;5029926;28;20212;-35
2022/08/26 12:52:44;;;;;;;12.43;9.93;;;16.10;61.20;;;;;;5029920;28;20621;-38
2022/08/26 12:55:23;;;;;;;11.52;9.48;;;16.10;61.30;;;;;;5029620;28;20227;-36
2022/08/26 12:58:21;;;;;;;11.85;9.85;;;16.10;61.30;;;;;;5030154;28;20203;-39
2022/08/26 13:00:55;;;;;;;12.07;9.63;;;16.10;61.30;;;;;;5029493;28;20216;-34
2022/08/26 13:03:43;;;;;;;13.68;10.30;;;16.10;61.20;;;;;;5030596;28;20200;-34
2022/08/26 13:06:28;;;;;;;11.30;8.77;;;16.00;61.20;;;;;;5029931;28;20270;-35
2022/08/26 13:09:01;;;;;;;11.63;9.27;;;16.10;61.20;;;;;;5029787;28;20230;-37
2022/08/26 13:11:33;;;;;;;11.43;8.77;;;16.00;61.10;;;;;;5029304;28;20614;-35
2022/08/26 13:14:06;;;;;;;12.55;9.50;;;16.10;61.10;;;;;;5029248;28;20224;-35
2022/08/26 13:16:40;;;;;;;12.25;8.95;;;16.00;61.00;;;;;;5029784;28;20197;-34
2022/08/26 13:19:12;;;;;;;11.90;8.98;;;16.00;61.00;;;;;;5029992;28;20196;-34
2022/08/26 13:21:46;;;;;;;11.35;8.90;;;16.00;61.00;;;;;;5029721;28;20220;-34